WetterOnline ( https://www.wetteronline.de )

Wetter aktuell Argenbühl

Aktuelles Wetter: Leutkirch-Herlazhofen (671m)

6-stündlich | Neueste Meldungen
Ortszeit Temperatur Wetter
Mi, 19.01. 19:00 1.4° C bedeckt
Mi, 19.01. 13:00 1.9° C wolkenlos
Mi, 19.01. 7:00 -0.7° C bedeckt
Mi, 19.01. 1:00 0.3° C bedeckt
Di, 18.01. 19:00 1.4° C bewölkt
Di, 18.01. 13:00 1.5° C bedeckt
Di, 18.01. 7:00 0.4° C bedeckt
Di, 18.01. 1:00 1.1° C Regen
Ortszeit Temperatur Wetter
Mi, 19.01. 19:30 1.2° C bewölkt
Mi, 19.01. 19:20 1.2° C bewölkt
Mi, 19.01. 19:10 1.3° C bewölkt
Mi, 19.01. 19:00 1.4° C bedeckt
Mi, 19.01. 18:50 1.4° C bedeckt
Mi, 19.01. 18:40 1.4° C bedeckt
Mi, 19.01. 18:30 1.4° C bewölkt
Mi, 19.01. 18:00 1.4° C leicht bewölkt
Mi, 19.01. 17:30 1.2° C wolkenlos
Mi, 19.01. 17:00 1.5° C wolkenlos
Mi, 19.01. 16:30 1.6° C leicht bewölkt
Ortszeit Relative Feuchte Sichtweite
Mi, 19.01. 19:00 83% 23 km
Mi, 19.01. 13:00 74% 21 km
Mi, 19.01. 7:00 90% 14 km
Mi, 19.01. 1:00 86% 35 km
Di, 18.01. 19:00 79% 65 km
Di, 18.01. 13:00 85% 30 km
Di, 18.01. 7:00 99% 6 km
Di, 18.01. 1:00 95% 15 km
Ortszeit Relative Feuchte Sichtweite
Mi, 19.01. 19:30 84% 23 km
Mi, 19.01. 19:20 84% -
Mi, 19.01. 19:10 83% -
Mi, 19.01. 19:00 83% 23 km
Mi, 19.01. 18:50 83% -
Mi, 19.01. 18:40 83% -
Mi, 19.01. 18:30 83% 22 km
Mi, 19.01. 18:00 82% 25 km
Mi, 19.01. 17:30 83% 25 km
Mi, 19.01. 17:00 81% 29 km
Mi, 19.01. 16:30 80% 17 km
Ortszeit Niederschlagsmenge Niederschlagsart
Mi, 19.01. 19:00 0.0 l/m2 in 12 Std. -
Mi, 19.01. 13:00 0.0 l/m2 in 6 Std. -
Mi, 19.01. 7:00 0.0 l/m2 in 12 Std. -
Mi, 19.01. 1:00 0.0 l/m2 in 6 Std. -
Di, 18.01. 19:00 0.0 l/m2 in 12 Std. -
Di, 18.01. 13:00 0.0 l/m2 in 6 Std. -
Di, 18.01. 7:00 0.4 l/m2 in 12 Std. Schnee, Regen
Di, 18.01. 1:00 0.4 l/m2 in 6 Std. Schnee, Regen
Ortszeit Niederschlagsmenge Niederschlagsart
Mi, 19.01. 19:30 0.0 l/m2 in 1 Std. -
Mi, 19.01. 19:20 keine Meldung -
Mi, 19.01. 19:10 keine Meldung -
Mi, 19.01. 19:00 0.0 l/m2 in 1 Std. -
Mi, 19.01. 18:50 keine Meldung -
Mi, 19.01. 18:40 keine Meldung -
Mi, 19.01. 18:30 0.0 l/m2 in 1 Std. -
Mi, 19.01. 18:00 0.0 l/m2 in 1 Std. -
Mi, 19.01. 17:30 0.0 l/m2 in 1 Std. -
Mi, 19.01. 17:00 0.0 l/m2 in 1 Std. -
Mi, 19.01. 16:30 0.0 l/m2 in 1 Std. -
Ortszeit Stärke Spitze Richtung
km/h Bft. km/h Grad Sektor
Mi, 19.01. 19:00 25 4 54 240° SW
Mi, 19.01. 13:00 18 3 29 220° SW
Mi, 19.01. 7:00 14 3 22 210° SW
Mi, 19.01. 1:00 9 2 31 80° O
Di, 18.01. 19:00 14 3 29 70° O
Di, 18.01. 13:00 11 2 25 60° NO
Di, 18.01. 7:00 0 0 11 - -
Di, 18.01. 1:00 7 2 18 210° SW
Ortszeit Stärke Spitze Richtung
km/h Bft. km/h Grad Sektor
Mi, 19.01. 19:30 22 4 33 240° SW
Mi, 19.01. 19:20 22 4 - 240° SW
Mi, 19.01. 19:10 20 4 - 240° SW
Mi, 19.01. 19:00 25 4 54 240° SW
Mi, 19.01. 18:50 25 4 - 240° SW
Mi, 19.01. 18:40 22 4 - 240° SW
Mi, 19.01. 18:30 31 5 52 240° SW
Mi, 19.01. 18:00 25 4 47 230° SW
Mi, 19.01. 17:30 24 4 41 220° SW
Mi, 19.01. 17:00 33 5 48 240° SW
Mi, 19.01. 16:30 19 3 33 220° SW
Ortszeit Untergrenze Bedeckung Gattung
total tief tief mittel hoch
Mi, 19.01. 19:00 540 m 8/8 8/8 - - -
Mi, 19.01. 13:00 - 0/8 0/8 - - -
Mi, 19.01. 7:00 240 m 8/8 8/8 - - -
Mi, 19.01. 1:00 300 m 8/8 8/8 - - -
Di, 18.01. 19:00 510 m 7/8 7/8 - - -
Di, 18.01. 13:00 330 m 8/8 8/8 - - -
Di, 18.01. 7:00 270 m 8/8 8/8 - - -
Di, 18.01. 1:00 630 m 7/8 7/8 - - -
Ortszeit Bedeckungsgrad in Achtel und Wolkenuntergrenze
Mi, 19.01. 19:30 7(480m)
Mi, 19.01. 19:20 7(480m)
Mi, 19.01. 19:10 7(480m)
Mi, 19.01. 19:00 8(540m)
Mi, 19.01. 18:50 8(540m)
Mi, 19.01. 18:40 8(540m)
Mi, 19.01. 18:30 4(540m) 7(900m)
Mi, 19.01. 18:00 2(900m)
Mi, 19.01. 17:30 keine Wolken
Mi, 19.01. 17:00 keine Wolken
Mi, 19.01. 16:30 2(450m)
Ortszeit Luftdruck NN (hPa) Tendenz (hPa in 3 Std.)
Mi, 19.01. 19:00 1028 + 0,3
Mi, 19.01. 13:00 1029 - 1,5
Mi, 19.01. 7:00 1032 - 1,1
Mi, 19.01. 1:00 1034 - 1,8
Di, 18.01. 19:00 1037 - 0,3
Di, 18.01. 13:00 1038 - 0,8
Di, 18.01. 7:00 1038 + 0,1
Di, 18.01. 1:00 1038 - 0,7
Ortszeit Luftdruck NN (hPa) Tendenz (hPa in 3 Std.)
Mi, 19.01. 19:30 1028 + 0,5
Mi, 19.01. 19:20 1028 keine Meldung
Mi, 19.01. 19:10 1028 keine Meldung
Mi, 19.01. 19:00 1028 + 0,3
Mi, 19.01. 18:50 1028 keine Meldung
Mi, 19.01. 18:40 1028 keine Meldung
Mi, 19.01. 18:30 1028 + 0,4
Mi, 19.01. 18:00 1027 + 0,2
Mi, 19.01. 17:30 1027 0,0
Mi, 19.01. 17:00 1027 - 0,6
Mi, 19.01. 16:30 1027 - 1,0
Ortszeit Schneehöhe (cm)
Mi, 19.01. 19:00 3
Mi, 19.01. 13:00 3
Mi, 19.01. 7:00 3
Mi, 19.01. 1:00 3
Di, 18.01. 19:00 3
Di, 18.01. 13:00 4
Di, 18.01. 7:00 4
Di, 18.01. 1:00 4
Ortszeit Schneehöhe (cm)
Mi, 19.01. 19:30 3
Mi, 19.01. 19:20 3
Mi, 19.01. 19:10 3
Mi, 19.01. 19:00 3
Mi, 19.01. 18:50 3
Mi, 19.01. 18:40 3
Mi, 19.01. 18:30 3
Mi, 19.01. 18:00 3
Mi, 19.01. 17:30 3
Mi, 19.01. 17:00 3
Mi, 19.01. 16:30 3
Link zu dieser Seite / Seite empfehlen

Das Wetter in ...